Time;durP1;ratioP1;P1;durP2;ratioP2;P2;SDS_P1;SDS_P2;PMS_P1;PMS_P2;Temp;Humidity;BMP_temperature;BMP_pressure;BME280_temperature;BME280_humidity;BME280_pressure;Samples;Min_cycle;Max_cycle;Signal;HPM_P1;HPM_P2
2021/04/04 00:02:07;;;;;;;27.58;7.40;;;;;;;6.08;71.95;102391.88;10214421;28;20042;-65
2021/04/04 00:07:03;;;;;;;24.15;6.22;;;;;;;6.01;72.24;102396.66;10219267;28;20107;-67
2021/04/04 00:11:59;;;;;;;26.38;7.45;;;;;;;5.87;72.35;102396.13;10215513;28;20423;-70
2021/04/04 00:16:55;;;;;;;25.02;6.10;;;;;;;5.84;72.06;102401.19;10206775;28;20126;-70
2021/04/04 00:21:51;;;;;;;22.60;5.65;;;;;;;6.01;71.70;102401.25;10208108;28;20048;-68
2021/04/04 00:26:47;;;;;;;22.05;6.15;;;;;;;5.77;72.57;102390.50;10208346;28;20042;-67
2021/04/04 00:31:43;;;;;;;21.17;5.93;;;;;;;5.82;72.27;102387.88;10203218;28;20049;-66
2021/04/04 00:36:39;;;;;;;25.45;6.30;;;;;;;5.90;71.74;102384.75;10206770;28;20090;-69
2021/04/04 00:41:35;;;;;;;25.27;6.68;;;;;;;5.97;71.68;102381.91;10220576;28;20065;-69
2021/04/04 00:46:32;;;;;;;27.02;5.55;;;;;;;5.79;71.98;102382.94;10221402;28;20489;-68
2021/04/04 00:51:29;;;;;;;22.50;6.25;;;;;;;5.64;72.21;102375.34;10221576;28;20867;-67
2021/04/04 00:56:25;;;;;;;29.48;6.45;;;;;;;5.66;72.75;102366.94;10212168;28;20135;-69
2021/04/04 01:01:22;;;;;;;25.92;6.07;;;;;;;5.63;73.22;102357.41;10209495;28;20103;-69
2021/04/04 01:06:18;;;;;;;36.25;6.40;;;;;;;5.44;72.79;102370.38;10225631;28;20474;-67
2021/04/04 01:11:21;;;;;;;28.35;5.70;;;;;;;5.48;73.24;102365.28;10212884;28;20053;-69
2021/04/04 01:16:24;;;;;;;24.02;6.50;;;;;;;5.25;73.89;102356.19;10228308;28;20496;-67
2021/04/04 01:21:29;;;;;;;26.23;7.18;;;;;;;5.28;73.84;102355.69;10221436;28;20625;-67
2021/04/04 01:26:55;;;;;;;22.70;6.22;;;;;;;5.26;73.90;102352.38;10223093;28;20576;-69
2021/04/04 01:31:53;;;;;;;22.00;6.28;;;;;;;5.15;73.68;102339.72;10227415;28;20053;-68
2021/04/04 01:36:53;;;;;;;23.27;5.35;;;;;;;5.08;74.42;102344.44;10227245;28;20041;-68
2021/04/04 01:41:52;;;;;;;19.75;6.18;;;;;;;4.98;74.77;102341.53;10214740;28;20049;-67
2021/04/04 01:46:52;;;;;;;21.95;7.22;;;;;;;4.90;74.88;102336.47;10223418;28;20045;-68
2021/04/04 01:51:49;;;;;;;26.33;6.15;;;;;;;4.99;74.13;102329.63;10218050;28;20057;-67
2021/04/04 01:56:46;;;;;;;22.33;5.72;;;;;;;4.96;74.66;102335.53;10204242;28;20488;-68
2021/04/04 02:01:47;;;;;;;28.10;6.65;;;;;;;4.92;74.82;102323.50;10231991;28;20045;-69
2021/04/04 02:06:44;;;;;;;26.15;6.57;;;;;;;5.03;74.02;102325.38;10215247;28;20037;-68
2021/04/04 02:11:42;;;;;;;20.88;6.20;;;;;;;4.93;74.01;102326.00;10222497;28;20499;-68
2021/04/04 02:16:44;;;;;;;26.45;6.45;;;;;;;4.96;73.94;102340.94;10218457;28;20053;-68
2021/04/04 02:21:46;;;;;;;21.85;5.70;;;;;;;4.98;74.32;102330.69;10225751;28;20557;-68
2021/04/04 02:26:43;;;;;;;22.63;7.00;;;;;;;4.80;74.88;102327.09;10220444;28;20049;-70
2021/04/04 02:31:45;;;;;;;26.65;7.45;;;;;;;4.97;73.27;102321.75;10223263;28;20460;-70
2021/04/04 02:36:42;;;;;;;26.60;6.43;;;;;;;4.94;73.16;102321.38;10216069;28;20309;-71
2021/04/04 02:41:40;;;;;;;24.63;7.70;;;;;;;4.80;74.12;102321.69;10213986;28;20061;-69
2021/04/04 02:46:38;;;;;;;23.83;6.80;;;;;;;4.60;74.78;102326.66;10208421;28;20126;-70
2021/04/04 02:51:39;;;;;;;22.10;6.82;;;;;;;4.61;74.67;102322.88;10214998;28;20618;-69
2021/04/04 02:56:39;;;;;;;17.92;5.25;;;;;;;4.72;74.13;102319.34;10214156;28;20062;-68
2021/04/04 03:01:38;;;;;;;20.10;6.38;;;;;;;4.67;74.25;102313.81;10201125;28;20511;-69
2021/04/04 03:06:44;;;;;;;28.35;6.63;;;;;;;4.58;74.55;102307.13;10216488;28;20042;-69
2021/04/04 03:11:40;;;;;;;22.95;6.18;;;;;;;4.75;73.87;102302.59;10219224;28;20053;-69
2021/04/04 03:16:37;;;;;;;22.73;5.53;;;;;;;4.69;73.86;102292.72;10219715;28;20142;-68
2021/04/04 03:21:34;;;;;;;30.05;6.88;;;;;;;4.58;74.21;102286.25;10223787;28;20710;-68
2021/04/04 03:26:31;;;;;;;23.52;5.32;;;;;;;4.71;74.57;102282.47;10216385;28;20108;-68
2021/04/04 03:31:28;;;;;;;30.67;8.13;;;;;;;4.67;73.68;102266.94;10221752;28;20081;-66
2021/04/04 03:36:25;;;;;;;23.42;5.28;;;;;;;4.69;73.37;102260.22;10211888;28;20100;-67
2021/04/04 03:41:24;;;;;;;30.25;6.25;;;;;;;4.43;74.11;102261.53;10215977;28;20054;-70
2021/04/04 03:46:28;;;;;;;26.63;6.38;;;;;;;4.59;73.89;102255.38;10216075;28;20486;-69
2021/04/04 03:51:25;;;;;;;;;;;;;;;4.48;74.71;102247.28;10219112;28;20054;-66
2021/04/04 03:56:27;;;;;;;23.33;5.53;;;;;;;4.34;75.09;102244.03;10212996;28;19935;-69
2021/04/04 04:01:25;;;;;;;22.10;5.10;;;;;;;4.49;74.38;102248.94;10206286;28;20061;-69
2021/04/04 04:06:22;;;;;;;24.48;5.85;;;;;;;4.47;74.51;102230.22;10216151;28;20050;-69
2021/04/04 04:11:19;;;;;;;23.23;5.68;;;;;;;4.47;74.26;102235.63;10205643;28;20136;-69
2021/04/04 04:16:16;;;;;;;24.75;5.22;;;;;;;4.48;74.57;102231.88;10205170;28;20045;-68
2021/04/04 04:21:13;;;;;;;27.85;5.68;;;;;;;4.20;75.21;102240.75;10220761;28;20144;-68
2021/04/04 04:26:13;;;;;;;29.92;6.93;;;;;;;4.31;74.70;102236.38;10206343;28;20050;-67
2021/04/04 04:31:14;;;;;;;21.38;5.32;;;;;;;4.31;74.94;102229.06;10199556;28;20087;-69
2021/04/04 04:36:11;;;;;;;20.13;6.18;;;;;;;4.48;74.84;102231.03;10214331;28;20053;-68
2021/04/04 04:41:09;;;;;;;27.90;4.95;;;;;;;4.56;74.15;102222.56;10209701;28;20080;-67
2021/04/04 04:46:06;;;;;;;25.50;5.72;;;;;;;4.54;73.91;102211.94;10212753;28;20557;-67
2021/04/04 04:51:02;;;;;;;19.80;4.25;;;;;;;4.63;73.62;102212.38;10221364;28;20072;-67
2021/04/04 04:56:01;;;;;;;16.45;4.60;;;;;;;4.46;73.74;102211.53;10222302;28;20049;-69
2021/04/04 05:01:02;;;;;;;21.05;4.28;;;;;;;4.51;73.78;102208.91;10199236;28;20096;-69
2021/04/04 05:06:04;;;;;;;25.38;5.03;;;;;;;4.56;73.44;102211.72;10206273;28;20041;-68
2021/04/04 05:11:05;;;;;;;13.98;4.10;;;;;;;4.55;73.07;102201.94;10205189;28;20130;-69
2021/04/04 05:16:02;;;;;;;17.67;3.42;;;;;;;4.55;72.66;102196.50;10207561;28;20073;-68
2021/04/04 05:20:57;;;;;;;25.02;4.15;;;;;;;4.47;72.63;102199.63;10221940;28;20046;-69
2021/04/04 05:25:54;;;;;;;18.20;3.70;;;;;;;4.51;71.82;102203.50;10205339;28;20492;-69
2021/04/04 05:30:50;;;;;;;17.00;3.70;;;;;;;4.62;71.68;102194.50;10209725;28;21552;-69
2021/04/04 05:35:46;;;;;;;17.58;3.65;;;;;;;4.60;71.24;102185.78;10213003;28;20052;-69
2021/04/04 05:40:43;;;;;;;14.85;3.15;;;;;;;4.72;71.44;102194.69;10208755;28;20041;-69
2021/04/04 05:45:45;;;;;;;16.90;3.25;;;;;;;4.71;71.30;102195.75;10210382;28;20054;-69
2021/04/04 05:50:53;;;;;;;16.63;3.85;;;;;;;4.62;71.70;102208.06;10221036;28;20388;-69
2021/04/04 05:56:40;;;;;;;13.63;4.32;;;;;;;4.80;70.94;102194.31;10223818;28;20112;-69
2021/04/04 06:01:53;;;;;;;21.05;3.75;;;;;;;4.77;71.50;102197.50;10178794;28;20542;-67
2021/04/04 06:07:25;;;;;;;18.63;3.53;;;;;;;4.85;70.39;102197.09;10218828;28;20104;-68
2021/04/04 06:12:51;;;;;;;15.23;3.47;;;;;;;4.89;70.27;102172.22;10214030;28;20597;-69
2021/04/04 06:17:54;;;;;;;16.77;3.33;;;;;;;4.95;69.76;102177.50;10224559;28;20100;-69
2021/04/04 06:23:04;;;;;;;14.67;2.97;;;;;;;5.03;69.90;102168.13;10214013;28;20563;-69
2021/04/04 06:28:29;;;;;;;17.33;3.40;;;;;;;5.06;69.13;102154.91;10223395;28;20462;-69
2021/04/04 06:33:26;;;;;;;;;;;;;;;5.17;68.85;102158.59;10208792;28;20658;-68
2021/04/04 06:38:49;;;;;;;29.60;3.83;;;;;;;5.07;69.28;102169.28;10220628;28;19925;-68
2021/04/04 06:44:13;;;;;;;16.48;2.72;;;;;;;5.31;68.31;102164.53;10209582;28;20126;-67
2021/04/04 06:49:22;;;;;;;13.93;3.00;;;;;;;5.30;68.62;102167.50;10220863;28;20076;-68
2021/04/04 06:54:32;;;;;;;14.50;2.55;;;;;;;5.36;68.48;102161.91;10212227;28;20053;-68
2021/04/04 06:59:44;;;;;;;17.20;3.38;;;;;;;5.31;67.86;102166.41;10212756;28;20693;-68
2021/04/04 07:04:53;;;;;;;18.50;3.83;;;;;;;5.31;68.18;102155.56;10212156;28;20107;-67
2021/04/04 07:10:09;;;;;;;23.25;2.63;;;;;;;5.46;67.65;102155.81;10218881;28;20046;-67
2021/04/04 07:15:27;;;;;;;13.50;2.80;;;;;;;5.37;68.30;102157.31;10208844;28;20104;-68
2021/04/04 07:20:54;;;;;;;21.65;3.40;;;;;;;5.52;68.94;102149.38;10210214;28;20053;-68
2021/04/04 07:26:16;;;;;;;14.52;3.53;;;;;;;5.41;69.51;102153.03;10218236;28;20053;-69
2021/04/04 07:31:14;;;;;;;16.40;2.75;;;;;;;5.36;70.56;102150.22;10222884;28;20462;-67
2021/04/04 07:36:23;;;;;;;14.30;2.50;;;;;;;5.46;70.89;102145.78;10219244;28;20518;-67
2021/04/04 07:41:50;;;;;;;13.38;3.05;;;;;;;5.32;71.60;102154.53;10219498;28;20740;-68
2021/04/04 07:47:05;;;;;;;14.35;3.53;;;;;;;5.22;71.92;102150.56;10214247;28;20050;-68
2021/04/04 07:52:09;;;;;;;17.23;4.07;;;;;;;5.49;71.96;102149.88;10221647;28;20054;-67
2021/04/04 07:57:20;;;;;;;13.93;4.57;;;;;;;5.39;73.44;102149.75;10218548;28;20480;-68
2021/04/04 08:02:24;;;;;;;20.27;4.97;;;;;;;5.23;73.93;102151.38;10224779;28;20588;-67
2021/04/04 08:07:24;;;;;;;18.70;5.63;;;;;;;5.29;74.25;102144.97;10216470;28;20456;-68
2021/04/04 08:12:40;;;;;;;20.02;6.40;;;;;;;5.30;74.82;102145.81;10218230;28;20045;-69
2021/04/04 08:17:36;;;;;;;19.48;6.28;;;;;;;5.39;74.76;102160.59;10216737;28;20104;-69
2021/04/04 08:22:41;;;;;;;18.40;6.30;;;;;;;5.42;74.25;102143.81;10216715;28;20053;-69
2021/04/04 08:27:46;;;;;;;19.88;6.13;;;;;;;5.41;74.55;102153.03;10221302;28;20498;-68
2021/04/04 08:32:47;;;;;;;23.85;6.95;;;;;;;5.53;73.93;102145.63;10214172;28;20486;-67
2021/04/04 08:37:50;;;;;;;22.45;5.20;;;;;;;5.50;74.13;102148.84;10214322;28;20073;-65
2021/04/04 08:42:48;;;;;;;21.00;6.47;;;;;;;5.50;74.03;102146.13;10217065;28;20049;-64
2021/04/04 08:47:46;;;;;;;16.55;6.30;;;;;;;5.49;74.28;102141.75;10226190;28;20041;-70
2021/04/04 08:53:00;;;;;;;18.20;6.00;;;;;;;5.60;74.42;102140.00;10216978;28;20560;-66
2021/04/04 08:58:01;;;;;;;15.05;5.45;;;;;;;5.46;74.68;102153.09;10215804;28;20055;-65
2021/04/04 09:03:15;;;;;;;21.17;7.20;;;;;;;5.61;75.22;102145.19;10217172;28;20053;-66
2021/04/04 09:08:13;;;;;;;16.45;6.20;;;;;;;5.55;75.69;102151.63;10212963;28;21594;-65
2021/04/04 09:13:17;;;;;;;19.02;5.80;;;;;;;5.69;74.17;102133.09;10213207;28;20053;-65
2021/04/04 09:18:13;;;;;;;16.13;5.70;;;;;;;5.73;73.31;102128.78;10213568;28;20072;-67
2021/04/04 09:23:11;;;;;;;16.92;5.53;;;;;;;5.75;73.26;102120.41;10219952;28;20521;-67
2021/04/04 09:28:09;;;;;;;15.13;3.75;;;;;;;5.94;72.22;102123.63;10225308;28;20077;-66
2021/04/04 09:33:09;;;;;;;12.82;4.32;;;;;;;5.95;71.10;102114.47;10223887;28;20045;-67
2021/04/04 09:38:17;;;;;;;15.30;3.70;;;;;;;5.84;70.82;102113.47;10226822;28;20107;-69
2021/04/04 09:43:15;;;;;;;14.05;3.17;;;;;;;5.95;70.92;102104.41;10223436;28;21267;-66
2021/04/04 09:48:26;;;;;;;10.27;3.38;;;;;;;6.22;69.85;102103.63;10221919;28;20065;-65
2021/04/04 09:53:42;;;;;;;11.52;2.90;;;;;;;6.19;69.13;102104.13;10220806;28;20503;-68
2021/04/04 09:58:40;;;;;;;9.02;3.17;;;;;;;6.26;68.92;102100.16;10218636;28;20041;-68
2021/04/04 10:03:37;;;;;;;15.15;3.00;;;;;;;6.18;69.73;102086.22;10210401;28;20050;-68
2021/04/04 10:08:33;;;;;;;14.63;3.33;;;;;;;6.24;68.99;102085.19;10226848;28;20506;-69
2021/04/04 10:13:30;;;;;;;6.88;2.10;;;;;;;6.29;68.67;102087.97;10217319;28;20072;-68
2021/04/04 10:18:26;;;;;;;10.73;2.65;;;;;;;6.42;68.59;102082.13;10222396;28;20221;-69
2021/04/04 10:23:33;;;;;;;9.30;1.77;;;;;;;6.24;68.87;102074.31;10215870;28;20045;-68
2021/04/04 10:28:45;;;;;;;7.10;1.80;;;;;;;6.21;68.07;102070.22;10223522;28;20064;-68
2021/04/04 10:33:41;;;;;;;7.63;1.90;;;;;;;6.38;68.05;102063.88;10220257;28;20569;-68
2021/04/04 10:38:54;;;;;;;15.98;2.33;;;;;;;6.37;68.36;102054.91;10214528;28;20049;-67
2021/04/04 10:43:50;;;;;;;8.13;1.30;;;;;;;6.48;67.48;102053.94;10221136;28;20053;-69
2021/04/04 10:48:48;;;;;;;17.35;2.85;;;;;;;6.63;65.76;102049.69;10211958;28;20053;-69
2021/04/04 10:53:45;;;;;;;8.23;1.90;;;;;;;6.69;64.91;102032.38;10217789;28;20053;-69
2021/04/04 10:58:42;;;;;;;11.73;1.83;;;;;;;6.68;64.70;102033.44;10215990;28;20127;-69
2021/04/04 11:03:43;;;;;;;10.05;2.40;;;;;;;6.62;64.59;102026.34;10215707;28;20115;-70
2021/04/04 11:08:41;;;;;;;10.73;2.00;;;;;;;6.62;63.70;102042.63;10206948;28;20874;-69
2021/04/04 11:13:41;;;;;;;10.85;1.70;;;;;;;6.70;63.61;102028.56;10219964;28;20503;-69
2021/04/04 11:18:43;;;;;;;9.40;2.53;;;;;;;6.79;63.53;102021.56;10216624;28;20046;-69
2021/04/04 11:23:39;;;;;;;14.52;2.47;;;;;;;6.91;63.31;102002.34;10215847;28;20069;-69
2021/04/04 11:28:35;;;;;;;14.02;2.30;;;;;;;6.86;63.38;102005.84;10212790;28;20038;-69
2021/04/04 11:33:33;;;;;;;10.40;2.45;;;;;;;6.79;64.49;102010.69;10218772;28;20045;-66
2021/04/04 11:38:38;;;;;;;11.07;1.77;;;;;;;6.83;65.61;101991.97;10220580;28;20103;-69
2021/04/04 11:43:34;;;;;;;13.77;2.67;;;;;;;6.98;65.27;101985.81;10220683;28;20453;-68
2021/04/04 11:48:36;;;;;;;13.10;1.85;;;;;;;6.90;64.73;101968.91;10221074;28;20045;-68
2021/04/04 11:53:49;;;;;;;12.02;2.60;;;;;;;6.97;65.05;101965.16;10220334;28;20396;-69
2021/04/04 11:58:45;;;;;;;14.75;3.42;;;;;;;7.15;65.13;101970.16;10219318;28;21057;-68
2021/04/04 12:03:41;;;;;;;9.73;2.17;;;;;;;7.21;63.88;101950.03;10220905;28;20041;-67
2021/04/04 12:08:37;;;;;;;14.95;2.22;;;;;;;7.28;64.45;101947.88;10211343;28;20041;-68
2021/04/04 12:13:34;;;;;;;6.68;2.20;;;;;;;7.26;63.40;101952.78;10207860;28;20723;-67
2021/04/04 12:18:30;;;;;;;6.43;1.60;;;;;;;7.05;64.15;101937.44;10205508;28;20402;-67
2021/04/04 12:23:27;;;;;;;6.93;1.38;;;;;;;7.11;63.93;101926.31;10210097;28;20081;-68
2021/04/04 12:28:23;;;;;;;7.30;1.40;;;;;;;7.14;64.40;101930.41;10208118;28;20052;-68
2021/04/04 12:33:21;;;;;;;6.13;1.67;;;;;;;7.14;65.04;101908.66;10212405;28;20052;-68
2021/04/04 12:38:21;;;;;;;5.60;1.27;;;;;;;7.27;64.47;101900.00;10219442;28;20041;-68
2021/04/04 12:43:18;;;;;;;5.32;1.42;;;;;;;7.08;65.23;101893.41;10218484;28;20056;-68
2021/04/04 12:48:16;;;;;;;5.93;1.58;;;;;;;7.18;64.40;101882.56;10218463;28;21348;-68
2021/04/04 12:53:30;;;;;;;7.50;1.80;;;;;;;7.22;65.00;101875.50;10217856;28;20068;-68
2021/04/04 12:58:37;;;;;;;5.93;1.30;;;;;;;7.14;65.31;101871.38;10213378;28;20053;-67
2021/04/04 13:03:36;;;;;;;8.88;1.77;;;;;;;7.04;65.85;101865.09;10215210;28;20052;-67
2021/04/04 13:08:36;;;;;;;9.57;1.83;;;;;;;6.75;68.04;101851.91;10215134;28;20049;-68
2021/04/04 13:13:35;;;;;;;7.00;1.80;;;;;;;6.82;67.71;101852.50;10206973;28;20129;-68
2021/04/04 13:18:34;;;;;;;7.85;2.17;;;;;;;7.07;66.69;101840.09;10215702;28;20473;-68
2021/04/04 13:23:35;;;;;;;6.75;1.58;;;;;;;7.07;66.21;101831.94;10208890;28;20046;-68
2021/04/04 13:28:34;;;;;;;4.38;1.45;;;;;;;7.07;66.16;101821.06;10214001;28;20046;-68
2021/04/04 13:33:30;;;;;;;9.82;1.98;;;;;;;7.08;66.03;101817.28;10205497;28;20053;-68
2021/04/04 13:38:27;;;;;;;8.20;1.40;;;;;;;7.02;66.25;101791.94;10207831;28;20045;-68
2021/04/04 13:43:23;;;;;;;8.43;1.40;;;;;;;7.12;66.02;101797.41;10207616;28;20554;-68
2021/04/04 13:48:30;;;;;;;5.85;1.95;;;;;;;7.07;66.35;101782.97;10213018;28;20046;-68
2021/04/04 13:53:36;;;;;;;8.60;1.65;;;;;;;7.08;66.52;101777.28;10211410;28;20084;-67
2021/04/04 13:58:35;;;;;;;10.85;2.42;;;;;;;7.04;66.47;101778.91;10206192;28;20041;-67
2021/04/04 14:03:36;;;;;;;5.47;1.67;;;;;;;7.02;66.70;101769.38;10210662;28;20050;-67
2021/04/04 14:08:38;;;;;;;7.47;1.88;;;;;;;6.85;67.84;101781.28;10218925;28;20045;-67
2021/04/04 14:13:35;;;;;;;9.75;2.00;;;;;;;6.89;67.31;101768.81;10206631;28;20057;-67
2021/04/04 14:18:36;;;;;;;12.85;1.92;;;;;;;6.83;67.56;101750.84;10219034;28;20045;-68
2021/04/04 14:23:35;;;;;;;7.30;1.52;;;;;;;7.03;66.89;101751.97;10222869;28;20049;-68
2021/04/04 14:28:34;;;;;;;7.88;1.63;;;;;;;6.90;66.59;101767.72;10223556;28;20049;-68
2021/04/04 14:33:32;;;;;;;7.68;2.25;;;;;;;7.04;65.83;101748.19;10217330;28;20050;-69
2021/04/04 14:38:28;;;;;;;10.82;2.22;;;;;;;7.09;66.08;101740.84;10221865;28;20147;-69
2021/04/04 14:48:23;;;;;;;12.07;2.15;;;;;;;6.91;67.24;101723.13;10216169;28;20041;-68
2021/04/04 14:53:20;;;;;;;8.65;1.85;;;;;;;6.91;66.77;101720.41;10217657;28;20148;-68
2021/04/04 14:58:20;;;;;;;8.70;2.10;;;;;;;6.84;66.66;101698.09;10206540;28;20076;-68
2021/04/04 15:03:16;;;;;;;8.50;2.30;;;;;;;7.11;66.22;101686.19;10213794;28;20105;-68
2021/04/04 15:08:13;;;;;;;15.75;2.70;;;;;;;7.15;65.79;101677.22;10208826;28;20543;-68
2021/04/04 15:13:11;;;;;;;15.25;3.00;;;;;;;7.00;66.45;101673.66;10214687;28;20132;-68
2021/04/04 15:18:08;;;;;;;9.13;3.53;;;;;;;6.95;66.89;101688.88;10215089;28;20049;-68
2021/04/04 15:23:05;;;;;;;10.07;3.67;;;;;;;6.98;67.53;101667.66;10212843;28;20046;-68
2021/04/04 15:28:02;;;;;;;16.30;4.40;;;;;;;7.04;67.05;101658.44;10217204;28;20064;-68
2021/04/04 15:33:02;;;;;;;7.78;3.05;;;;;;;6.98;66.88;101648.63;10214562;28;20041;-68
2021/04/04 15:37:58;;;;;;;11.48;3.60;;;;;;;6.94;66.17;101641.03;10216465;28;20099;-68
2021/04/04 15:42:55;;;;;;;9.35;3.15;;;;;;;6.80;67.29;101631.78;10218504;28;20049;-68
2021/04/04 15:47:56;;;;;;;14.02;4.03;;;;;;;6.84;67.71;101624.69;10208727;28;20050;-68
2021/04/04 15:52:54;;;;;;;9.65;2.67;;;;;;;6.84;67.53;101611.09;10216832;28;20143;-68
2021/04/04 15:57:52;;;;;;;10.82;2.95;;;;;;;6.69;67.54;101602.94;10220141;28;20100;-68
2021/04/04 16:02:48;;;;;;;14.25;3.78;;;;;;;6.76;67.95;101608.94;10217910;28;20091;-69
2021/04/04 16:07:44;;;;;;;13.35;4.00;;;;;;;6.81;68.03;101606.22;10212262;28;20667;-68
2021/04/04 16:12:40;;;;;;;10.40;3.78;;;;;;;6.67;69.00;101588.81;10216509;28;20041;-68
2021/04/04 16:17:36;;;;;;;9.45;3.17;;;;;;;6.72;68.66;101569.78;10217436;28;20045;-67
2021/04/04 16:22:32;;;;;;;11.05;3.20;;;;;;;6.65;68.94;101555.66;10209287;28;20053;-68
2021/04/04 16:27:28;;;;;;;14.77;4.63;;;;;;;6.71;68.80;101551.84;10208012;28;20104;-68
2021/04/04 16:32:25;;;;;;;12.90;4.85;;;;;;;6.65;68.85;101540.16;10213621;28;20049;-69
2021/04/04 16:37:21;;;;;;;13.90;5.15;;;;;;;6.70;69.12;101531.19;10210896;28;20058;-68
2021/04/04 16:42:17;;;;;;;18.92;5.75;;;;;;;6.74;68.98;101535.00;10219783;28;21504;-68
2021/04/04 16:47:13;;;;;;;15.32;4.70;;;;;;;6.66;69.98;101511.06;10211408;28;20053;-68
2021/04/04 16:52:09;;;;;;;12.57;3.22;;;;;;;6.47;70.70;101508.88;10218364;28;20045;-68
2021/04/04 16:57:06;;;;;;;18.13;6.72;;;;;;;6.50;71.29;101492.06;10211772;28;20046;-68
2021/04/04 17:02:02;;;;;;;10.82;2.80;;;;;;;6.55;71.65;101493.16;10213011;28;20512;-68
2021/04/04 17:06:58;;;;;;;8.02;3.78;;;;;;;6.44;71.93;101493.13;10210367;28;20041;-66
2021/04/04 17:11:54;;;;;;;7.45;2.88;;;;;;;6.41;72.73;101496.41;10216169;28;20148;-66
2021/04/04 17:16:50;;;;;;;15.60;3.42;;;;;;;6.39;72.77;101489.63;10212823;28;20057;-66
2021/04/04 17:21:46;;;;;;;10.98;2.83;;;;;;;6.49;72.40;101485.00;10213390;28;20081;-69
2021/04/04 17:26:42;;;;;;;15.35;3.60;;;;;;;6.43;72.38;101458.94;10211017;28;20050;-68
2021/04/04 17:31:39;;;;;;;14.27;3.42;;;;;;;6.56;71.92;101437.72;10209975;28;20506;-69
2021/04/04 17:36:35;;;;;;;17.38;4.15;;;;;;;6.56;71.83;101413.28;10206232;28;20056;-69
2021/04/04 17:41:31;;;;;;;21.27;4.72;;;;;;;6.55;71.54;101403.50;10208931;28;20155;-69
2021/04/04 17:46:27;;;;;;;13.32;4.25;;;;;;;6.58;71.27;101408.38;10219615;28;20049;-68
2021/04/04 17:51:23;;;;;;;20.23;5.78;;;;;;;6.55;71.30;101393.44;10216374;28;20068;-68
2021/04/04 17:56:19;;;;;;;17.75;9.85;;;;;;;6.45;71.83;101407.84;10215635;28;20131;-69
2021/04/04 18:01:15;;;;;;;20.02;10.38;;;;;;;6.57;71.45;101387.72;10212479;28;20696;-67
2021/04/04 18:07:00;;;;;;;17.25;5.88;;;;;;;6.51;70.91;101370.63;10206591;28;20049;-67
2021/04/04 18:11:32;;;;;;;19.08;5.15;;;;;;;6.52;71.21;101337.75;10220163;28;20075;-67
2021/04/04 18:16:28;;;;;;;15.38;5.03;;;;;;;6.55;70.65;101341.00;10204173;28;20045;-67
2021/04/04 18:21:24;;;;;;;16.42;5.38;;;;;;;6.41;71.01;101325.28;10212531;28;20056;-67
2021/04/04 18:26:20;;;;;;;18.02;4.45;;;;;;;6.44;71.53;101294.84;10213360;28;20095;-67
2021/04/04 18:31:18;;;;;;;19.50;5.38;;;;;;;6.44;70.84;101300.28;10222879;28;20048;-68
2021/04/04 18:36:14;;;;;;;19.45;5.45;;;;;;;6.32;71.62;101310.63;10217024;28;20583;-68
2021/04/04 18:41:10;;;;;;;18.20;4.75;;;;;;;6.37;71.11;101297.03;10202702;28;20050;-68
2021/04/04 18:46:07;;;;;;;17.08;5.03;;;;;;;6.48;70.88;101293.19;10203376;28;20147;-67
2021/04/04 18:51:03;;;;;;;12.63;4.93;;;;;;;6.50;70.85;101307.31;10198986;28;20050;-68
2021/04/04 18:56:00;;;;;;;18.02;4.88;;;;;;;6.52;70.87;101267.13;10212550;28;20103;-68
2021/04/04 19:00:56;;;;;;;14.73;4.80;;;;;;;6.43;70.53;101252.47;10205698;28;20049;-68
2021/04/04 19:05:52;;;;;;;13.95;5.70;;;;;;;6.31;71.13;101235.66;10205884;28;20045;-68
2021/04/04 19:10:58;;;;;;;14.25;5.00;;;;;;;6.44;71.14;101245.13;10190496;28;20049;-68
2021/04/04 19:15:56;;;;;;;18.50;5.00;;;;;;;6.51;70.87;101226.63;10203057;28;20053;-67
2021/04/04 19:20:52;;;;;;;13.45;4.40;;;;;;;6.46;70.48;101181.28;10214382;28;20053;-68
2021/04/04 19:25:49;;;;;;;13.48;5.10;;;;;;;6.34;71.01;101174.56;10195472;28;20050;-67
2021/04/04 19:30:45;;;;;;;16.77;4.97;;;;;;;6.27;70.47;101153.94;10216057;28;20139;-67
2021/04/04 19:35:41;;;;;;;21.65;5.65;;;;;;;6.36;69.97;101158.78;10213842;28;20073;-68
2021/04/04 19:40:38;;;;;;;12.43;4.97;;;;;;;6.30;70.37;101136.28;10209465;28;20073;-67
2021/04/04 19:45:35;;;;;;;23.42;5.40;;;;;;;6.35;70.20;101119.94;10204252;28;20741;-66
2021/04/04 19:50:31;;;;;;;12.73;4.05;;;;;;;6.25;70.95;101125.44;10207162;28;20078;-67
2021/04/04 19:55:27;;;;;;;21.42;7.22;;;;;;;6.17;70.75;101090.72;10198537;28;20172;-67
2021/04/04 20:00:24;;;;;;;20.25;4.97;;;;;;;6.23;70.51;101078.75;10206393;28;20054;-67
2021/04/04 20:05:22;;;;;;;17.60;5.00;;;;;;;6.18;70.82;101078.78;10209200;28;20046;-67
2021/04/04 20:10:20;;;;;;;14.90;5.13;;;;;;;6.18;70.69;101054.34;10205264;28;20088;-67
2021/04/04 20:15:17;;;;;;;15.88;6.05;;;;;;;6.19;71.11;101061.38;10208479;28;20045;-67
2021/04/04 20:20:15;;;;;;;19.58;8.70;;;;;;;6.09;71.44;101052.19;10199842;28;20050;-67
2021/04/04 20:25:11;;;;;;;24.70;10.27;;;;;;;6.06;71.28;101041.09;10195887;28;20523;-67
2021/04/04 20:30:10;;;;;;;24.10;12.18;;;;;;;6.07;71.61;101045.44;10210541;28;20104;-67
2021/04/04 20:35:13;;;;;;;29.73;11.38;;;;;;;6.02;71.48;101035.41;10207526;28;20054;-67
2021/04/04 20:40:10;;;;;;;;;;;;;;;5.97;71.39;101016.44;10204169;28;20052;-67
2021/04/04 20:45:06;;;;;;;18.75;9.52;;;;;;;5.86;71.81;101014.81;10210617;28;19925;-67
2021/04/04 20:50:04;;;;;;;23.55;10.60;;;;;;;5.88;71.58;100990.94;10203007;28;20089;-67
2021/04/04 20:55:06;;;;;;;26.17;11.90;;;;;;;5.69;72.02;100972.56;10199810;28;20836;-67
2021/04/04 21:00:08;;;;;;;26.48;10.20;;;;;;;5.76;71.82;100960.63;10206100;28;20068;-67
2021/04/04 21:05:06;;;;;;;20.75;9.18;;;;;;;5.73;72.09;100955.72;10208526;28;20053;-67
2021/04/04 21:10:03;;;;;;;23.17;10.23;;;;;;;5.66;71.87;100928.91;10205063;28;23343;-67
2021/04/04 21:14:59;;;;;;;28.10;9.88;;;;;;;5.63;71.74;100914.00;10212299;28;20050;-67
2021/04/04 21:19:55;;;;;;;22.60;10.07;;;;;;;5.64;71.75;100899.38;10219300;28;20435;-69
2021/04/04 21:25:01;;;;;;;21.15;9.85;;;;;;;5.64;71.66;100926.50;10214689;28;20050;-68
2021/04/04 21:29:57;;;;;;;24.88;9.57;;;;;;;5.53;72.24;100892.38;10213791;28;20178;-68
2021/04/04 21:34:53;;;;;;;21.15;8.60;;;;;;;5.44;72.57;100883.19;10210857;28;20073;-68
2021/04/04 21:39:49;;;;;;;22.90;9.65;;;;;;;5.43;72.47;100859.88;10200151;28;20447;-68
2021/04/04 21:44:46;;;;;;;23.35;9.65;;;;;;;5.43;72.21;100859.88;10202070;28;20462;-69
2021/04/04 21:49:42;;;;;;;25.05;10.45;;;;;;;5.43;72.47;100876.13;10202189;28;20096;-66
2021/04/04 21:54:39;;;;;;;25.00;11.00;;;;;;;5.40;73.07;100833.31;10207555;28;20060;-66
2021/04/04 21:59:36;;;;;;;24.63;11.38;;;;;;;5.37;72.44;100804.88;10210992;28;20050;-67
2021/04/04 22:04:32;;;;;;;29.88;11.10;;;;;;;5.33;72.99;100790.25;10214535;28;20054;-68
2021/04/04 22:09:29;;;;;;;24.67;10.23;;;;;;;5.31;73.32;100767.22;10206640;28;20527;-70
2021/04/04 22:14:25;;;;;;;26.40;11.35;;;;;;;5.32;73.32;100755.28;10216418;28;20519;-69
2021/04/04 22:19:26;;;;;;;30.98;12.10;;;;;;;5.24;73.47;100721.44;10209298;28;20046;-68
2021/04/04 22:24:27;;;;;;;23.15;10.18;;;;;;;5.24;73.40;100727.69;10208122;28;20049;-68
2021/04/04 22:29:24;;;;;;;25.40;10.68;;;;;;;5.21;73.82;100690.28;10220308;28;20096;-68
2021/04/04 22:34:20;;;;;;;33.08;11.68;;;;;;;5.24;73.78;100668.06;10219588;28;20105;-68
2021/04/04 22:39:16;;;;;;;20.63;9.95;;;;;;;5.16;73.47;100682.19;10215354;28;20049;-68
2021/04/04 22:44:13;;;;;;;27.20;11.93;;;;;;;5.19;73.88;100654.50;10205785;28;20782;-65
2021/04/04 22:49:10;;;;;;;20.25;9.20;;;;;;;5.13;73.70;100623.16;10207465;28;20065;-67
2021/04/04 22:54:06;;;;;;;17.25;9.05;;;;;;;5.16;73.32;100611.72;10211817;28;20777;-69
2021/04/04 22:59:04;;;;;;;26.35;10.60;;;;;;;5.20;73.25;100606.56;10219736;28;20046;-69
2021/04/04 23:04:00;;;;;;;22.55;10.27;;;;;;;5.19;73.08;100573.19;10220335;28;20085;-69
2021/04/04 23:08:57;;;;;;;25.25;11.45;;;;;;;5.18;72.57;100560.75;10216356;28;20134;-68